Time,TemperatureF,DewpointF,PressureIn,WindDirection,WindDirectionDegrees,WindSpeedMPH,WindSpeedGustMPH,Humidity,HourlyPrecipIn,Conditions,Clouds,dailyrainin,SolarRadiationWatts/m^2,SoftwareType,DateUTC
2013-01-23 00:53:00,61.0,18.0,-100.00,North,356,9.0,12.0,19,0.00,,,0.00,0.000000,,2013-01-23 08:53:00,
2013-01-23 01:12:00,61.0,18.0,-100.00,North,356,9.0,12.0,19,0.00,,,0.00,0.000000,,2013-01-23 09:12:00,
2013-01-23 01:22:00,61.0,18.0,-100.00,North,356,9.0,12.0,19,0.00,,,0.00,0.000000,,2013-01-23 09:22:00,
2013-01-23 01:53:00,59.0,18.0,-100.00,North,355,5.0,13.0,20,0.00,,,-99.99,0.000000,,2013-01-23 09:53:00,
2013-01-23 02:02:00,59.0,18.0,-100.00,North,355,5.0,13.0,20,0.00,,,-99.99,0.000000,,2013-01-23 10:02:00,
2013-01-23 02:12:00,59.0,18.0,-100.00,North,355,5.0,13.0,20,0.00,,,-99.99,0.000000,,2013-01-23 10:12:00,
2013-01-23 02:22:00,59.0,18.0,-100.00,North,355,5.0,13.0,20,0.00,,,-99.99,0.000000,,2013-01-23 10:22:00,
2013-01-23 02:53:00,59.0,19.0,-100.00,NNE,22,5.0,13.0,21,0.00,,,0.00,0.000000,,2013-01-23 10:53:00,
2013-01-23 03:02:00,59.0,19.0,-100.00,NNE,22,5.0,13.0,21,0.00,,,0.00,0.000000,,2013-01-23 11:02:00,
2013-01-23 03:12:00,59.0,19.0,-100.00,NNE,22,5.0,13.0,21,0.00,,,0.00,0.000000,,2013-01-23 11:12:00,
2013-01-23 03:22:00,59.0,19.0,-100.00,NNE,22,5.0,13.0,21,0.00,,,0.00,0.000000,,2013-01-23 11:22:00,
2013-01-23 03:53:00,54.0,21.0,-100.00,ENE,63,2.0,9.0,27,0.00,,,0.00,0.000000,,2013-01-23 11:53:00,
2013-01-23 04:03:00,54.0,21.0,-100.00,ENE,63,2.0,9.0,27,0.00,,,0.00,0.000000,,2013-01-23 12:03:00,
2013-01-23 04:12:00,54.0,21.0,-100.00,ENE,63,2.0,9.0,27,0.00,,,0.00,0.000000,,2013-01-23 12:12:00,
2013-01-23 04:22:00,54.0,21.0,-100.00,ENE,63,2.0,9.0,27,0.00,,,0.00,0.000000,,2013-01-23 12:22:00,
2013-01-23 04:53:00,57.0,19.0,-100.00,North,350,5.0,7.0,22,0.00,,,0.00,0.000000,,2013-01-23 12:53:00,
2013-01-23 05:03:00,57.0,19.0,-100.00,North,350,5.0,7.0,22,0.00,,,0.00,0.000000,,2013-01-23 13:03:00,
2013-01-23 05:12:00,57.0,19.0,-100.00,North,350,5.0,7.0,22,0.00,,,0.00,0.000000,,2013-01-23 13:12:00,
2013-01-23 05:22:00,57.0,19.0,-100.00,North,350,5.0,7.0,22,0.00,,,0.00,0.000000,,2013-01-23 13:22:00,
2013-01-23 05:53:00,54.0,21.0,-100.00,NE,44,0.0,7.0,27,0.00,,,0.00,0.000000,,2013-01-23 13:53:00,
2013-01-23 06:02:00,54.0,21.0,-100.00,NE,44,0.0,7.0,27,0.00,,,0.00,0.000000,,2013-01-23 14:02:00,
2013-01-23 06:12:00,54.0,21.0,-100.00,NE,44,0.0,7.0,27,0.00,,,0.00,0.000000,,2013-01-23 14:12:00,
2013-01-23 06:23:00,54.0,21.0,-100.00,NE,44,0.0,7.0,27,0.00,,,0.00,0.000000,,2013-01-23 14:23:00,
2013-01-23 06:53:00,53.0,19.0,-100.00,NNE,14,6.0,8.0,26,0.00,,,0.00,0.000000,,2013-01-23 14:53:00,
2013-01-23 07:02:00,53.0,19.0,-100.00,NNE,14,6.0,8.0,26,0.00,,,0.00,0.000000,,2013-01-23 15:02:00,
2013-01-23 07:12:00,53.0,19.0,-100.00,NNE,14,6.0,8.0,26,0.00,,,0.00,0.000000,,2013-01-23 15:12:00,
2013-01-23 07:22:00,53.0,19.0,-100.00,NNE,14,6.0,8.0,26,0.00,,,0.00,0.000000,,2013-01-23 15:22:00,
2013-01-23 07:53:00,52.0,19.0,-100.00,North,2,0.0,7.0,27,0.00,,,0.00,21.000000,,2013-01-23 15:53:00,
2013-01-23 08:03:00,52.0,19.0,-100.00,North,2,0.0,7.0,27,0.00,,,0.00,21.000000,,2013-01-23 16:03:00,
2013-01-23 08:12:00,52.0,19.0,-100.00,North,2,0.0,7.0,27,0.00,,,0.00,21.000000,,2013-01-23 16:12:00,
2013-01-23 08:22:00,52.0,19.0,-100.00,North,2,0.0,7.0,27,0.00,,,0.00,21.000000,,2013-01-23 16:22:00,
2013-01-23 08:53:00,59.0,23.0,-100.00,NNE,33,3.0,6.0,25,0.00,,,0.00,207.000000,,2013-01-23 16:53:00,
2013-01-23 09:03:00,59.0,23.0,-100.00,NNE,33,3.0,6.0,25,0.00,,,0.00,207.000000,,2013-01-23 17:03:00,
2013-01-23 09:12:00,59.0,23.0,-100.00,NNE,33,3.0,6.0,25,0.00,,,0.00,207.000000,,2013-01-23 17:12:00,
2013-01-23 09:22:00,59.0,23.0,-100.00,NNE,33,3.0,6.0,25,0.00,,,0.00,207.000000,,2013-01-23 17:22:00,
2013-01-23 09:53:00,60.0,22.0,-100.00,North,6,5.0,8.0,23,0.00,,,0.00,302.000000,,2013-01-23 17:53:00,
2013-01-23 10:03:00,60.0,22.0,-100.00,North,6,5.0,8.0,23,0.00,,,0.00,302.000000,,2013-01-23 18:03:00,
2013-01-23 10:12:00,60.0,22.0,-100.00,North,6,5.0,8.0,23,0.00,,,0.00,302.000000,,2013-01-23 18:12:00,
2013-01-23 10:23:00,60.0,22.0,-100.00,North,6,5.0,8.0,23,0.00,,,0.00,302.000000,,2013-01-23 18:23:00,
2013-01-23 10:53:00,66.0,25.0,-100.00,NNE,16,6.0,8.0,21,0.00,,,0.00,336.000000,,2013-01-23 18:53:00,
2013-01-23 11:02:00,66.0,25.0,-100.00,NNE,16,6.0,8.0,21,0.00,,,0.00,336.000000,,2013-01-23 19:02:00,
2013-01-23 11:12:00,66.0,25.0,-100.00,NNE,16,6.0,8.0,21,0.00,,,0.00,336.000000,,2013-01-23 19:12:00,
2013-01-23 11:22:00,66.0,25.0,-100.00,NNE,16,6.0,8.0,21,0.00,,,0.00,336.000000,,2013-01-23 19:22:00,
2013-01-23 11:53:00,73.0,21.0,-100.00,NNW,328,7.0,11.0,14,0.00,,,0.00,771.000000,,2013-01-23 19:53:00,
2013-01-23 12:03:00,73.0,21.0,-100.00,NNW,328,7.0,11.0,14,0.00,,,0.00,771.000000,,2013-01-23 20:03:00,
2013-01-23 12:12:00,73.0,21.0,-100.00,NNW,328,7.0,11.0,14,0.00,,,0.00,771.000000,,2013-01-23 20:12:00,
2013-01-23 12:22:00,73.0,21.0,-100.00,NNW,328,7.0,11.0,14,0.00,,,0.00,771.000000,,2013-01-23 20:22:00,
2013-01-23 12:53:00,74.0,20.0,-100.00,NW,320,6.0,10.0,13,0.00,,,0.00,760.000000,,2013-01-23 20:53:00,
2013-01-23 13:02:00,74.0,20.0,-100.00,NW,320,6.0,10.0,13,0.00,,,0.00,760.000000,,2013-01-23 21:02:00,
2013-01-23 13:12:00,74.0,20.0,-100.00,NW,320,6.0,10.0,13,0.00,,,0.00,760.000000,,2013-01-23 21:12:00,
2013-01-23 13:22:00,74.0,20.0,-100.00,NW,320,6.0,10.0,13,0.00,,,0.00,760.000000,,2013-01-23 21:22:00,
2013-01-23 13:53:00,78.0,21.0,-100.00,WSW,258,3.0,10.0,12,0.00,,,0.00,684.000000,,2013-01-23 21:53:00,
2013-01-23 14:02:00,78.0,21.0,-100.00,WSW,258,3.0,10.0,12,0.00,,,0.00,684.000000,,2013-01-23 22:02:00,
2013-01-23 14:12:00,78.0,21.0,-100.00,WSW,258,3.0,10.0,12,0.00,,,0.00,684.000000,,2013-01-23 22:12:00,
2013-01-23 14:22:00,78.0,21.0,-100.00,WSW,258,3.0,10.0,12,0.00,,,0.00,684.000000,,2013-01-23 22:22:00,
2013-01-23 15:03:00,77.0,22.0,-100.00,NNW,336,3.0,8.0,13,0.00,,,0.00,339.000000,,2013-01-23 23:03:00,
2013-01-23 15:12:00,77.0,22.0,-100.00,NNW,336,3.0,8.0,13,0.00,,,0.00,339.000000,,2013-01-23 23:12:00,
2013-01-23 15:22:00,77.0,22.0,-100.00,NNW,336,3.0,8.0,13,0.00,,,0.00,339.000000,,2013-01-23 23:22:00,
2013-01-23 15:53:00,77.0,24.0,-100.00,WNW,287,4.0,9.0,14,0.00,,,0.00,259.000000,,2013-01-23 23:53:00,
2013-01-23 16:03:00,77.0,24.0,-100.00,WNW,287,4.0,9.0,14,0.00,,,0.00,259.000000,,2013-01-24 00:03:00,
2013-01-23 16:12:00,77.0,24.0,-100.00,WNW,287,4.0,9.0,14,0.00,,,0.00,259.000000,,2013-01-24 00:12:00,
2013-01-23 16:22:00,77.0,24.0,-100.00,WNW,287,4.0,9.0,14,0.00,,,0.00,259.000000,,2013-01-24 00:22:00,
2013-01-23 16:53:00,75.0,26.0,-100.00,NNW,337,7.0,10.0,16,0.00,,,0.00,111.000000,,2013-01-24 00:53:00,
2013-01-23 17:02:00,75.0,26.0,-100.00,NNW,337,7.0,10.0,16,0.00,,,0.00,111.000000,,2013-01-24 01:02:00,
2013-01-23 17:12:00,75.0,26.0,-100.00,NNW,337,7.0,10.0,16,0.00,,,0.00,111.000000,,2013-01-24 01:12:00,
2013-01-23 17:22:00,75.0,26.0,-100.00,NNW,337,7.0,10.0,16,0.00,,,0.00,111.000000,,2013-01-24 01:22:00,
2013-01-23 17:52:00,72.0,29.0,-100.00,NNW,334,4.0,9.0,20,0.00,,,0.00,21.000000,,2013-01-24 01:52:00,
2013-01-23 18:02:00,72.0,29.0,-100.00,NNW,334,4.0,9.0,20,0.00,,,0.00,21.000000,,2013-01-24 02:02:00,
2013-01-23 18:12:00,72.0,29.0,-100.00,NNW,334,4.0,9.0,20,0.00,,,0.00,21.000000,,2013-01-24 02:12:00,
2013-01-23 18:22:00,72.0,29.0,-100.00,NNW,334,4.0,9.0,20,0.00,,,0.00,21.000000,,2013-01-24 02:22:00,
2013-01-23 19:02:00,70.0,27.0,-100.00,NW,312,5.0,9.0,20,0.00,,,0.00,0.000000,,2013-01-24 03:02:00,
2013-01-23 19:12:00,70.0,27.0,-100.00,NW,312,5.0,9.0,20,0.00,,,0.00,0.000000,,2013-01-24 03:12:00,
2013-01-23 19:22:00,70.0,27.0,-100.00,NW,312,5.0,9.0,20,0.00,,,0.00,0.000000,,2013-01-24 03:22:00,
2013-01-23 19:53:00,67.0,30.0,-100.00,North,0,3.0,5.0,25,0.00,,,-99.99,0.000000,,2013-01-24 03:53:00,
2013-01-23 20:02:00,67.0,30.0,-100.00,North,0,3.0,5.0,25,0.00,,,-99.99,0.000000,,2013-01-24 04:02:00,
2013-01-23 20:12:00,67.0,30.0,-100.00,North,0,3.0,5.0,25,0.00,,,-99.99,0.000000,,2013-01-24 04:12:00,
2013-01-23 20:22:00,67.0,30.0,-100.00,North,0,3.0,5.0,25,0.00,,,-99.99,0.000000,,2013-01-24 04:22:00,
2013-01-23 20:53:00,66.0,25.0,-100.00,NW,322,0.0,4.0,21,0.00,,,0.00,0.000000,,2013-01-24 04:53:00,
2013-01-23 21:03:00,66.0,25.0,-100.00,NW,322,0.0,4.0,21,0.00,,,0.00,0.000000,,2013-01-24 05:03:00,
2013-01-23 21:12:00,66.0,25.0,-100.00,NW,322,0.0,4.0,21,0.00,,,0.00,0.000000,,2013-01-24 05:12:00,
2013-01-23 21:22:00,66.0,25.0,-100.00,NW,322,0.0,4.0,21,0.00,,,0.00,0.000000,,2013-01-24 05:22:00,
2013-01-23 21:53:00,66.0,28.0,-100.00,South,185,0.0,4.0,24,0.00,,,0.00,0.000000,,2013-01-24 05:53:00,
2013-01-23 22:02:00,66.0,28.0,-100.00,South,185,0.0,4.0,24,0.00,,,0.00,0.000000,,2013-01-24 06:02:00,
2013-01-23 22:12:00,66.0,28.0,-100.00,South,185,0.0,4.0,24,0.00,,,0.00,0.000000,,2013-01-24 06:12:00,
2013-01-23 22:22:00,66.0,28.0,-100.00,South,185,0.0,4.0,24,0.00,,,0.00,0.000000,,2013-01-24 06:22:00,
2013-01-23 22:52:00,66.0,26.0,-100.00,NNW,345,2.0,4.0,22,0.00,,,0.00,0.000000,,2013-01-24 06:52:00,
2013-01-23 23:02:00,66.0,26.0,-100.00,NNW,345,2.0,4.0,22,0.00,,,0.00,0.000000,,2013-01-24 07:02:00,
2013-01-23 23:12:00,66.0,26.0,-100.00,NNW,345,2.0,4.0,22,0.00,,,0.00,0.000000,,2013-01-24 07:12:00,
2013-01-23 23:22:00,66.0,26.0,-100.00,NNW,345,2.0,4.0,22,0.00,,,0.00,0.000000,,2013-01-24 07:22:00,
2013-01-23 23:53:00,63.0,32.0,-100.00,ENE,65,0.0,5.0,31,0.00,,,0.00,0.000000,,2013-01-24 07:53:00,